sensor_id;sensor_type;location;lat;lon;timestamp;temperature;humidity
8332;DHT22;4203;48.144;14.118;2022-10-14T00:00:16;8.90;99.90
8332;DHT22;4203;48.144;14.118;2022-10-14T00:02:43;8.80;99.90
8332;DHT22;4203;48.144;14.118;2022-10-14T00:05:10;8.80;99.90
8332;DHT22;4203;48.144;14.118;2022-10-14T00:07:39;8.80;99.90
8332;DHT22;4203;48.144;14.118;2022-10-14T00:10:07;8.80;99.90
8332;DHT22;4203;48.144;14.118;2022-10-14T00:12:34;8.70;99.90
8332;DHT22;4203;48.144;14.118;2022-10-14T00:15:01;8.80;99.90
8332;DHT22;4203;48.144;14.118;2022-10-14T00:17:29;8.80;99.90
8332;DHT22;4203;48.144;14.118;2022-10-14T00:19:56;8.80;99.90
8332;DHT22;4203;48.144;14.118;2022-10-14T00:22:24;8.80;99.90
8332;DHT22;4203;48.144;14.118;2022-10-14T00:24:53;8.70;99.90
8332;DHT22;4203;48.144;14.118;2022-10-14T00:27:20;8.70;99.90
8332;DHT22;4203;48.144;14.118;2022-10-14T00:29:47;8.70;99.90
8332;DHT22;4203;48.144;14.118;2022-10-14T00:32:14;8.70;99.90
8332;DHT22;4203;48.144;14.118;2022-10-14T00:34:42;8.70;99.90
8332;DHT22;4203;48.144;14.118;2022-10-14T00:37:09;8.70;99.90
8332;DHT22;4203;48.144;14.118;2022-10-14T00:39:36;8.60;99.90
8332;DHT22;4203;48.144;14.118;2022-10-14T00:42:10;8.60;99.90
8332;DHT22;4203;48.144;14.118;2022-10-14T00:45:01;8.60;99.90
8332;DHT22;4203;48.144;14.118;2022-10-14T00:47:29;8.60;99.90
8332;DHT22;4203;48.144;14.118;2022-10-14T00:49:58;8.50;99.90
8332;DHT22;4203;48.144;14.118;2022-10-14T00:52:26;8.50;99.90
8332;DHT22;4203;48.144;14.118;2022-10-14T00:54:55;8.40;99.90
8332;DHT22;4203;48.144;14.118;2022-10-14T00:57:26;8.40;99.90
8332;DHT22;4203;48.144;14.118;2022-10-14T01:00:00;8.40;99.90
8332;DHT22;4203;48.144;14.118;2022-10-14T01:02:29;8.50;99.90
8332;DHT22;4203;48.144;14.118;2022-10-14T01:04:56;8.50;99.90
8332;DHT22;4203;48.144;14.118;2022-10-14T01:07:33;8.50;99.90
8332;DHT22;4203;48.144;14.118;2022-10-14T01:10:08;8.50;99.90
8332;DHT22;4203;48.144;14.118;2022-10-14T01:12:46;8.40;99.90
8332;DHT22;4203;48.144;14.118;2022-10-14T01:15:24;8.40;99.90
8332;DHT22;4203;48.144;14.118;2022-10-14T01:18:00;8.40;99.90
8332;DHT22;4203;48.144;14.118;2022-10-14T01:20:45;8.40;99.90
8332;DHT22;4203;48.144;14.118;2022-10-14T01:26:49;8.50;99.90
8332;DHT22;4203;48.144;14.118;2022-10-14T01:29:40;8.40;99.90
8332;DHT22;4203;48.144;14.118;2022-10-14T01:32:13;8.30;99.90
8332;DHT22;4203;48.144;14.118;2022-10-14T01:34:47;8.40;99.90
8332;DHT22;4203;48.144;14.118;2022-10-14T01:37:20;8.40;99.90
8332;DHT22;4203;48.144;14.118;2022-10-14T01:39:51;8.40;99.90
8332;DHT22;4203;48.144;14.118;2022-10-14T01:42:22;8.40;99.90
8332;DHT22;4203;48.144;14.118;2022-10-14T01:44:55;8.50;99.90
8332;DHT22;4203;48.144;14.118;2022-10-14T01:47:24;8.50;99.90
8332;DHT22;4203;48.144;14.118;2022-10-14T01:49:58;8.60;99.90
8332;DHT22;4203;48.144;14.118;2022-10-14T01:52:31;8.60;99.90
8332;DHT22;4203;48.144;14.118;2022-10-14T01:55:02;8.60;99.90
8332;DHT22;4203;48.144;14.118;2022-10-14T01:57:33;8.60;99.90
8332;DHT22;4203;48.144;14.118;2022-10-14T02:00:04;8.60;99.90
8332;DHT22;4203;48.144;14.118;2022-10-14T02:02:35;8.70;99.90
8332;DHT22;4203;48.144;14.118;2022-10-14T02:05:07;8.70;99.90
8332;DHT22;4203;48.144;14.118;2022-10-14T02:07:37;8.70;99.90
8332;DHT22;4203;48.144;14.118;2022-10-14T02:10:12;8.70;99.90
8332;DHT22;4203;48.144;14.118;2022-10-14T02:12:53;8.70;99.90
8332;DHT22;4203;48.144;14.118;2022-10-14T02:15:30;8.80;99.90
8332;DHT22;4203;48.144;14.118;2022-10-14T02:18:03;8.90;99.90
8332;DHT22;4203;48.144;14.118;2022-10-14T02:20:35;8.90;99.90
8332;DHT22;4203;48.144;14.118;2022-10-14T02:23:07;8.90;99.90
8332;DHT22;4203;48.144;14.118;2022-10-14T02:25:39;8.90;99.90
8332;DHT22;4203;48.144;14.118;2022-10-14T02:28:08;9.00;99.90
8332;DHT22;4203;48.144;14.118;2022-10-14T02:30:40;9.00;99.90
8332;DHT22;4203;48.144;14.118;2022-10-14T02:33:08;9.10;99.90
8332;DHT22;4203;48.144;14.118;2022-10-14T02:35:37;9.10;99.90
8332;DHT22;4203;48.144;14.118;2022-10-14T02:38:07;9.20;99.90
8332;DHT22;4203;48.144;14.118;2022-10-14T02:40:37;9.30;99.90
8332;DHT22;4203;48.144;14.118;2022-10-14T02:43:05;9.40;99.90
8332;DHT22;4203;48.144;14.118;2022-10-14T02:45:35;9.50;99.90
8332;DHT22;4203;48.144;14.118;2022-10-14T02:48:04;9.60;99.90
8332;DHT22;4203;48.144;14.118;2022-10-14T02:50:31;9.60;99.90
8332;DHT22;4203;48.144;14.118;2022-10-14T02:52:59;9.70;99.90
8332;DHT22;4203;48.144;14.118;2022-10-14T02:55:26;9.70;99.90
8332;DHT22;4203;48.144;14.118;2022-10-14T02:57:53;9.70;99.90
8332;DHT22;4203;48.144;14.118;2022-10-14T03:00:21;9.70;99.90
8332;DHT22;4203;48.144;14.118;2022-10-14T03:02:48;9.80;99.90
8332;DHT22;4203;48.144;14.118;2022-10-14T03:05:17;9.70;99.90
8332;DHT22;4203;48.144;14.118;2022-10-14T03:07:44;9.90;99.90
8332;DHT22;4203;48.144;14.118;2022-10-14T03:10:11;9.80;99.90
8332;DHT22;4203;48.144;14.118;2022-10-14T03:12:38;9.80;99.90
8332;DHT22;4203;48.144;14.118;2022-10-14T03:15:07;9.80;99.90
8332;DHT22;4203;48.144;14.118;2022-10-14T03:17:34;9.90;99.90
8332;DHT22;4203;48.144;14.118;2022-10-14T03:20:01;9.90;99.90
8332;DHT22;4203;48.144;14.118;2022-10-14T03:22:30;10.00;99.90
8332;DHT22;4203;48.144;14.118;2022-10-14T03:24:57;10.00;99.90
8332;DHT22;4203;48.144;14.118;2022-10-14T03:27:24;10.10;99.90
8332;DHT22;4203;48.144;14.118;2022-10-14T03:29:51;10.10;99.90
8332;DHT22;4203;48.144;14.118;2022-10-14T03:32:18;10.10;99.90
8332;DHT22;4203;48.144;14.118;2022-10-14T03:34:45;10.10;99.90
8332;DHT22;4203;48.144;14.118;2022-10-14T03:37:13;10.00;99.90
8332;DHT22;4203;48.144;14.118;2022-10-14T03:39:41;10.10;99.90
8332;DHT22;4203;48.144;14.118;2022-10-14T03:42:09;10.00;99.90
8332;DHT22;4203;48.144;14.118;2022-10-14T03:44:36;10.10;99.90
8332;DHT22;4203;48.144;14.118;2022-10-14T03:47:04;10.10;99.90
8332;DHT22;4203;48.144;14.118;2022-10-14T03:49:31;10.10;99.90
8332;DHT22;4203;48.144;14.118;2022-10-14T03:51:58;10.10;99.90
8332;DHT22;4203;48.144;14.118;2022-10-14T03:54:25;10.10;99.90
8332;DHT22;4203;48.144;14.118;2022-10-14T03:56:53;10.10;99.90
8332;DHT22;4203;48.144;14.118;2022-10-14T03:59:21;10.20;99.90
8332;DHT22;4203;48.144;14.118;2022-10-14T04:01:49;10.20;99.90
8332;DHT22;4203;48.144;14.118;2022-10-14T04:04:16;10.20;99.90
8332;DHT22;4203;48.144;14.118;2022-10-14T04:06:43;10.20;99.90
8332;DHT22;4203;48.144;14.118;2022-10-14T04:09:10;10.20;99.90
8332;DHT22;4203;48.144;14.118;2022-10-14T04:11:37;10.20;99.90
8332;DHT22;4203;48.144;14.118;2022-10-14T04:14:06;10.20;99.90
8332;DHT22;4203;48.144;14.118;2022-10-14T04:16:33;10.20;99.90
8332;DHT22;4203;48.144;14.118;2022-10-14T04:19:00;10.20;99.90
8332;DHT22;4203;48.144;14.118;2022-10-14T04:21:27;10.10;99.90
8332;DHT22;4203;48.144;14.118;2022-10-14T04:23:55;10.20;99.90
8332;DHT22;4203;48.144;14.118;2022-10-14T04:26:22;10.20;99.90
8332;DHT22;4203;48.144;14.118;2022-10-14T04:28:49;10.30;99.90
8332;DHT22;4203;48.144;14.118;2022-10-14T04:31:17;10.20;99.90
8332;DHT22;4203;48.144;14.118;2022-10-14T04:33:45;10.30;99.90
8332;DHT22;4203;48.144;14.118;2022-10-14T04:36:12;10.30;99.90
8332;DHT22;4203;48.144;14.118;2022-10-14T04:38:39;10.30;99.90
8332;DHT22;4203;48.144;14.118;2022-10-14T04:41:06;10.30;99.90
8332;DHT22;4203;48.144;14.118;2022-10-14T04:43:33;10.30;99.90
8332;DHT22;4203;48.144;14.118;2022-10-14T04:46:00;10.30;99.90
8332;DHT22;4203;48.144;14.118;2022-10-14T04:48:29;10.40;99.90
8332;DHT22;4203;48.144;14.118;2022-10-14T04:50:56;10.40;99.90
8332;DHT22;4203;48.144;14.118;2022-10-14T04:53:23;10.50;99.90
8332;DHT22;4203;48.144;14.118;2022-10-14T04:55:50;10.50;99.90
8332;DHT22;4203;48.144;14.118;2022-10-14T04:58:18;10.50;99.90
8332;DHT22;4203;48.144;14.118;2022-10-14T05:00:45;10.50;99.90
8332;DHT22;4203;48.144;14.118;2022-10-14T05:03:12;10.50;99.90
8332;DHT22;4203;48.144;14.118;2022-10-14T05:05:40;10.50;99.90
8332;DHT22;4203;48.144;14.118;2022-10-14T05:08:08;10.60;99.90
8332;DHT22;4203;48.144;14.118;2022-10-14T05:10:35;10.60;99.90
8332;DHT22;4203;48.144;14.118;2022-10-14T05:13:02;10.60;99.90
8332;DHT22;4203;48.144;14.118;2022-10-14T05:15:30;10.60;99.90
8332;DHT22;4203;48.144;14.118;2022-10-14T05:17:57;10.60;99.90
8332;DHT22;4203;48.144;14.118;2022-10-14T05:20:25;10.60;99.90
8332;DHT22;4203;48.144;14.118;2022-10-14T05:22:53;10.60;99.90
8332;DHT22;4203;48.144;14.118;2022-10-14T05:25:21;10.60;99.90
8332;DHT22;4203;48.144;14.118;2022-10-14T05:27:48;10.60;99.90
8332;DHT22;4203;48.144;14.118;2022-10-14T05:30:15;10.60;99.90
8332;DHT22;4203;48.144;14.118;2022-10-14T05:32:42;10.60;99.90
8332;DHT22;4203;48.144;14.118;2022-10-14T05:35:09;10.50;99.90
8332;DHT22;4203;48.144;14.118;2022-10-14T05:37:37;10.60;99.90
8332;DHT22;4203;48.144;14.118;2022-10-14T05:40:07;10.60;99.90
8332;DHT22;4203;48.144;14.118;2022-10-14T05:42:35;10.50;99.90
8332;DHT22;4203;48.144;14.118;2022-10-14T05:45:02;10.50;99.90
8332;DHT22;4203;48.144;14.118;2022-10-14T05:47:30;10.50;99.90
8332;DHT22;4203;48.144;14.118;2022-10-14T05:49:57;10.60;99.90
8332;DHT22;4203;48.144;14.118;2022-10-14T05:52:27;10.60;99.90
8332;DHT22;4203;48.144;14.118;2022-10-14T05:54:56;10.60;99.90
8332;DHT22;4203;48.144;14.118;2022-10-14T05:57:26;10.60;99.90
8332;DHT22;4203;48.144;14.118;2022-10-14T05:59:53;10.60;99.90
8332;DHT22;4203;48.144;14.118;2022-10-14T06:02:21;10.70;99.90
8332;DHT22;4203;48.144;14.118;2022-10-14T06:04:48;10.70;99.90
8332;DHT22;4203;48.144;14.118;2022-10-14T06:07:15;10.70;99.90
8332;DHT22;4203;48.144;14.118;2022-10-14T06:09:42;10.70;99.90
8332;DHT22;4203;48.144;14.118;2022-10-14T06:12:09;10.70;99.90
8332;DHT22;4203;48.144;14.118;2022-10-14T06:14:38;10.80;99.90
8332;DHT22;4203;48.144;14.118;2022-10-14T06:17:05;10.80;99.90
8332;DHT22;4203;48.144;14.118;2022-10-14T06:19:34;10.80;99.90
8332;DHT22;4203;48.144;14.118;2022-10-14T06:22:01;10.90;99.90
8332;DHT22;4203;48.144;14.118;2022-10-14T06:24:28;10.90;99.90
8332;DHT22;4203;48.144;14.118;2022-10-14T06:26:56;10.90;99.90
8332;DHT22;4203;48.144;14.118;2022-10-14T06:29:23;11.00;99.90
8332;DHT22;4203;48.144;14.118;2022-10-14T06:31:57;11.00;99.90
8332;DHT22;4203;48.144;14.118;2022-10-14T06:34:24;11.10;99.90
8332;DHT22;4203;48.144;14.118;2022-10-14T06:36:51;11.20;99.90
8332;DHT22;4203;48.144;14.118;2022-10-14T06:39:18;11.20;99.90
8332;DHT22;4203;48.144;14.118;2022-10-14T06:41:45;11.30;99.90
8332;DHT22;4203;48.144;14.118;2022-10-14T06:44:12;11.40;99.90
8332;DHT22;4203;48.144;14.118;2022-10-14T06:46:40;11.50;99.90
8332;DHT22;4203;48.144;14.118;2022-10-14T06:49:09;11.50;99.90
8332;DHT22;4203;48.144;14.118;2022-10-14T06:51:36;11.60;99.90
8332;DHT22;4203;48.144;14.118;2022-10-14T06:54:04;11.70;99.90
8332;DHT22;4203;48.144;14.118;2022-10-14T06:56:32;11.80;99.90
8332;DHT22;4203;48.144;14.118;2022-10-14T06:59:00;11.90;99.90
8332;DHT22;4203;48.144;14.118;2022-10-14T07:01:27;11.90;99.90
8332;DHT22;4203;48.144;14.118;2022-10-14T07:03:54;12.10;99.90
8332;DHT22;4203;48.144;14.118;2022-10-14T07:06:23;12.30;99.90
8332;DHT22;4203;48.144;14.118;2022-10-14T07:08:50;12.60;99.90
8332;DHT22;4203;48.144;14.118;2022-10-14T07:11:17;12.90;99.90
8332;DHT22;4203;48.144;14.118;2022-10-14T07:13:44;13.10;99.90
8332;DHT22;4203;48.144;14.118;2022-10-14T07:16:12;13.10;99.90
8332;DHT22;4203;48.144;14.118;2022-10-14T07:18:39;13.10;99.90
8332;DHT22;4203;48.144;14.118;2022-10-14T07:21:06;13.10;99.90
8332;DHT22;4203;48.144;14.118;2022-10-14T07:23:35;13.20;99.90
8332;DHT22;4203;48.144;14.118;2022-10-14T07:26:02;13.30;99.90
8332;DHT22;4203;48.144;14.118;2022-10-14T07:28:29;13.30;99.90
8332;DHT22;4203;48.144;14.118;2022-10-14T07:31:00;13.30;99.90
8332;DHT22;4203;48.144;14.118;2022-10-14T07:33:27;13.30;99.90
8332;DHT22;4203;48.144;14.118;2022-10-14T07:35:54;13.30;99.90
8332;DHT22;4203;48.144;14.118;2022-10-14T07:38:21;13.40;99.90
8332;DHT22;4203;48.144;14.118;2022-10-14T07:41:01;13.50;99.90
8332;DHT22;4203;48.144;14.118;2022-10-14T07:43:28;13.60;99.90
8332;DHT22;4203;48.144;14.118;2022-10-14T07:45:58;13.60;99.90
8332;DHT22;4203;48.144;14.118;2022-10-14T07:48:27;13.70;99.90
8332;DHT22;4203;48.144;14.118;2022-10-14T07:50:55;13.80;99.90
8332;DHT22;4203;48.144;14.118;2022-10-14T07:53:23;13.90;99.90
8332;DHT22;4203;48.144;14.118;2022-10-14T07:55:50;14.00;99.90
8332;DHT22;4203;48.144;14.118;2022-10-14T07:58:22;14.10;99.90
8332;DHT22;4203;48.144;14.118;2022-10-14T08:00:49;14.20;99.90
8332;DHT22;4203;48.144;14.118;2022-10-14T08:03:18;14.10;99.90
8332;DHT22;4203;48.144;14.118;2022-10-14T08:05:46;14.10;99.90
8332;DHT22;4203;48.144;14.118;2022-10-14T08:08:15;14.10;99.90
8332;DHT22;4203;48.144;14.118;2022-10-14T08:10:43;14.10;99.90
8332;DHT22;4203;48.144;14.118;2022-10-14T08:13:10;14.10;99.90
8332;DHT22;4203;48.144;14.118;2022-10-14T08:15:39;14.10;99.90
8332;DHT22;4203;48.144;14.118;2022-10-14T08:18:09;14.10;99.90
8332;DHT22;4203;48.144;14.118;2022-10-14T08:20:37;14.20;99.90
8332;DHT22;4203;48.144;14.118;2022-10-14T08:23:04;14.30;99.90
8332;DHT22;4203;48.144;14.118;2022-10-14T08:25:39;14.50;99.90
8332;DHT22;4203;48.144;14.118;2022-10-14T08:28:07;15.20;99.90
8332;DHT22;4203;48.144;14.118;2022-10-14T08:30:34;15.90;99.90
8332;DHT22;4203;48.144;14.118;2022-10-14T08:33:03;16.70;99.90
8332;DHT22;4203;48.144;14.118;2022-10-14T08:35:30;17.40;99.90
8332;DHT22;4203;48.144;14.118;2022-10-14T08:37:59;17.90;99.90
8332;DHT22;4203;48.144;14.118;2022-10-14T08:40:27;18.20;99.90
8332;DHT22;4203;48.144;14.118;2022-10-14T08:43:00;18.50;99.90
8332;DHT22;4203;48.144;14.118;2022-10-14T08:45:32;18.90;99.90
8332;DHT22;4203;48.144;14.118;2022-10-14T08:48:07;19.40;99.90
8332;DHT22;4203;48.144;14.118;2022-10-14T08:50:42;19.30;99.90
8332;DHT22;4203;48.144;14.118;2022-10-14T08:53:14;18.90;99.90
8332;DHT22;4203;48.144;14.118;2022-10-14T08:55:45;18.50;99.90
8332;DHT22;4203;48.144;14.118;2022-10-14T08:58:15;18.20;99.90
8332;DHT22;4203;48.144;14.118;2022-10-14T09:00:48;17.80;99.90
8332;DHT22;4203;48.144;14.118;2022-10-14T09:03:19;17.60;99.90
8332;DHT22;4203;48.144;14.118;2022-10-14T09:05:52;17.40;99.90
8332;DHT22;4203;48.144;14.118;2022-10-14T09:08:27;17.30;99.90
8332;DHT22;4203;48.144;14.118;2022-10-14T09:10:57;17.20;99.90
8332;DHT22;4203;48.144;14.118;2022-10-14T09:13:28;17.10;99.90
8332;DHT22;4203;48.144;14.118;2022-10-14T09:16:01;17.00;99.90
8332;DHT22;4203;48.144;14.118;2022-10-14T09:18:34;17.20;99.90
8332;DHT22;4203;48.144;14.118;2022-10-14T09:21:15;17.30;99.90
8332;DHT22;4203;48.144;14.118;2022-10-14T09:23:46;17.80;99.90
8332;DHT22;4203;48.144;14.118;2022-10-14T09:26:18;18.00;99.90
8332;DHT22;4203;48.144;14.118;2022-10-14T09:28:46;17.80;99.90
8332;DHT22;4203;48.144;14.118;2022-10-14T09:31:19;17.90;99.90
8332;DHT22;4203;48.144;14.118;2022-10-14T09:33:47;17.90;99.90
8332;DHT22;4203;48.144;14.118;2022-10-14T09:36:16;18.20;99.90
8332;DHT22;4203;48.144;14.118;2022-10-14T09:38:46;18.70;99.90
8332;DHT22;4203;48.144;14.118;2022-10-14T09:41:17;19.10;99.90
8332;DHT22;4203;48.144;14.118;2022-10-14T09:44:13;19.50;99.90
8332;DHT22;4203;48.144;14.118;2022-10-14T09:46:49;20.30;99.90
8332;DHT22;4203;48.144;14.118;2022-10-14T09:49:22;20.20;99.90
8332;DHT22;4203;48.144;14.118;2022-10-14T09:51:52;20.40;99.90
8332;DHT22;4203;48.144;14.118;2022-10-14T09:54:23;20.20;99.90
8332;DHT22;4203;48.144;14.118;2022-10-14T09:56:59;19.50;99.90
8332;DHT22;4203;48.144;14.118;2022-10-14T09:59:28;18.90;99.90
8332;DHT22;4203;48.144;14.118;2022-10-14T10:01:57;18.40;99.90
8332;DHT22;4203;48.144;14.118;2022-10-14T10:04:34;19.10;99.90
8332;DHT22;4203;48.144;14.118;2022-10-14T10:07:04;19.70;99.90
8332;DHT22;4203;48.144;14.118;2022-10-14T10:09:32;19.50;99.90
8332;DHT22;4203;48.144;14.118;2022-10-14T10:11:59;18.90;99.90
8332;DHT22;4203;48.144;14.118;2022-10-14T10:14:28;18.50;99.90
8332;DHT22;4203;48.144;14.118;2022-10-14T10:17:17;18.50;99.90
8332;DHT22;4203;48.144;14.118;2022-10-14T10:19:47;18.50;99.90
8332;DHT22;4203;48.144;14.118;2022-10-14T10:22:21;18.40;99.90
8332;DHT22;4203;48.144;14.118;2022-10-14T10:24:49;18.30;99.90
8332;DHT22;4203;48.144;14.118;2022-10-14T10:27:24;18.40;99.90
8332;DHT22;4203;48.144;14.118;2022-10-14T10:29:52;18.60;99.90
8332;DHT22;4203;48.144;14.118;2022-10-14T10:32:23;18.70;99.90
8332;DHT22;4203;48.144;14.118;2022-10-14T10:35:14;18.70;99.90
8332;DHT22;4203;48.144;14.118;2022-10-14T10:37:55;18.80;99.90
8332;DHT22;4203;48.144;14.118;2022-10-14T10:40:33;19.10;99.90
8332;DHT22;4203;48.144;14.118;2022-10-14T10:43:18;19.90;99.90
8332;DHT22;4203;48.144;14.118;2022-10-14T10:45:59;20.00;99.90
8332;DHT22;4203;48.144;14.118;2022-10-14T10:48:41;20.00;99.90
8332;DHT22;4203;48.144;14.118;2022-10-14T10:51:13;20.10;99.90
8332;DHT22;4203;48.144;14.118;2022-10-14T10:54:00;20.60;99.90
8332;DHT22;4203;48.144;14.118;2022-10-14T10:56:38;21.20;99.90
8332;DHT22;4203;48.144;14.118;2022-10-14T11:02:43;22.10;99.90
8332;DHT22;4203;48.144;14.118;2022-10-14T11:05:19;22.00;99.90
8332;DHT22;4203;48.144;14.118;2022-10-14T11:07:56;21.80;99.90
8332;DHT22;4203;48.144;14.118;2022-10-14T11:10:49;21.40;99.90
8332;DHT22;4203;48.144;14.118;2022-10-14T11:13:40;21.00;99.90
8332;DHT22;4203;48.144;14.118;2022-10-14T11:16:16;20.70;99.90
8332;DHT22;4203;48.144;14.118;2022-10-14T11:18:49;20.50;99.90
8332;DHT22;4203;48.144;14.118;2022-10-14T11:21:23;20.20;99.90
8332;DHT22;4203;48.144;14.118;2022-10-14T11:24:07;20.10;99.90
8332;DHT22;4203;48.144;14.118;2022-10-14T11:27:04;20.40;99.90
8332;DHT22;4203;48.144;14.118;2022-10-14T11:32:57;21.20;99.90
8332;DHT22;4203;48.144;14.118;2022-10-14T11:35:36;20.80;99.90
8332;DHT22;4203;48.144;14.118;2022-10-14T11:38:24;20.70;99.90
8332;DHT22;4203;48.144;14.118;2022-10-14T11:41:00;21.50;99.90
8332;DHT22;4203;48.144;14.118;2022-10-14T11:43:35;22.10;99.90
8332;DHT22;4203;48.144;14.118;2022-10-14T11:46:07;22.70;99.90
8332;DHT22;4203;48.144;14.118;2022-10-14T11:48:41;23.40;99.90
8332;DHT22;4203;48.144;14.118;2022-10-14T11:51:16;23.90;99.90
8332;DHT22;4203;48.144;14.118;2022-10-14T11:53:54;23.80;99.90
8332;DHT22;4203;48.144;14.118;2022-10-14T11:56:34;24.40;99.90
8332;DHT22;4203;48.144;14.118;2022-10-14T11:59:26;25.20;99.90
8332;DHT22;4203;48.144;14.118;2022-10-14T12:02:00;26.00;99.90
8332;DHT22;4203;48.144;14.118;2022-10-14T12:04:32;26.40;99.90
8332;DHT22;4203;48.144;14.118;2022-10-14T12:07:07;26.50;99.90
8332;DHT22;4203;48.144;14.118;2022-10-14T12:09:40;26.70;99.90
8332;DHT22;4203;48.144;14.118;2022-10-14T12:12:13;26.70;99.90
8332;DHT22;4203;48.144;14.118;2022-10-14T12:14:44;27.10;99.90
8332;DHT22;4203;48.144;14.118;2022-10-14T12:17:19;27.10;99.90
8332;DHT22;4203;48.144;14.118;2022-10-14T12:19:48;26.80;99.90
8332;DHT22;4203;48.144;14.118;2022-10-14T12:22:19;26.30;99.90
8332;DHT22;4203;48.144;14.118;2022-10-14T12:24:49;26.70;99.90
8332;DHT22;4203;48.144;14.118;2022-10-14T12:27:20;26.90;99.90
8332;DHT22;4203;48.144;14.118;2022-10-14T12:29:50;26.60;99.90
8332;DHT22;4203;48.144;14.118;2022-10-14T12:32:22;25.90;99.90
8332;DHT22;4203;48.144;14.118;2022-10-14T12:34:50;25.30;99.90
8332;DHT22;4203;48.144;14.118;2022-10-14T12:40:25;25.90;99.90
8332;DHT22;4203;48.144;14.118;2022-10-14T12:43:01;26.50;99.90
8332;DHT22;4203;48.144;14.118;2022-10-14T12:45:31;26.90;99.90
8332;DHT22;4203;48.144;14.118;2022-10-14T12:48:03;27.20;99.90
8332;DHT22;4203;48.144;14.118;2022-10-14T12:50:35;27.50;99.90
8332;DHT22;4203;48.144;14.118;2022-10-14T12:53:05;27.80;99.90
8332;DHT22;4203;48.144;14.118;2022-10-14T12:55:46;28.10;99.90
8332;DHT22;4203;48.144;14.118;2022-10-14T12:58:26;28.00;99.90
8332;DHT22;4203;48.144;14.118;2022-10-14T13:00:57;26.60;99.90
8332;DHT22;4203;48.144;14.118;2022-10-14T13:03:26;25.60;99.90
8332;DHT22;4203;48.144;14.118;2022-10-14T13:06:24;25.80;99.90
8332;DHT22;4203;48.144;14.118;2022-10-14T13:21:51;26.90;99.30
8332;DHT22;4203;48.144;14.118;2022-10-14T13:24:24;26.70;99.90
8332;DHT22;4203;48.144;14.118;2022-10-14T13:27:11;27.60;99.80
8332;DHT22;4203;48.144;14.118;2022-10-14T13:29:55;28.90;98.40
8332;DHT22;4203;48.144;14.118;2022-10-14T13:32:31;29.80;97.30
8332;DHT22;4203;48.144;14.118;2022-10-14T13:35:11;30.10;95.10
8332;DHT22;4203;48.144;14.118;2022-10-14T13:37:41;30.40;95.00
8332;DHT22;4203;48.144;14.118;2022-10-14T13:40:19;30.50;94.30
8332;DHT22;4203;48.144;14.118;2022-10-14T13:42:50;30.50;93.60
8332;DHT22;4203;48.144;14.118;2022-10-14T13:45:18;30.80;93.20
8332;DHT22;4203;48.144;14.118;2022-10-14T13:47:48;30.70;93.80
8332;DHT22;4203;48.144;14.118;2022-10-14T13:50:20;30.70;93.70
8332;DHT22;4203;48.144;14.118;2022-10-14T13:52:52;30.30;92.90
8332;DHT22;4203;48.144;14.118;2022-10-14T13:55:22;29.80;92.80
8332;DHT22;4203;48.144;14.118;2022-10-14T13:58:00;28.70;94.20
8332;DHT22;4203;48.144;14.118;2022-10-14T14:00:29;27.60;95.50
8332;DHT22;4203;48.144;14.118;2022-10-14T14:02:57;26.10;96.70
8332;DHT22;4203;48.144;14.118;2022-10-14T14:05:28;24.70;99.40
8332;DHT22;4203;48.144;14.118;2022-10-14T14:07:57;23.60;99.90
8332;DHT22;4203;48.144;14.118;2022-10-14T14:10:25;22.70;99.90
8332;DHT22;4203;48.144;14.118;2022-10-14T14:12:53;22.10;99.90
8332;DHT22;4203;48.144;14.118;2022-10-14T14:15:23;21.50;99.90
8332;DHT22;4203;48.144;14.118;2022-10-14T14:17:50;21.10;99.90
8332;DHT22;4203;48.144;14.118;2022-10-14T14:20:19;20.60;99.90
8332;DHT22;4203;48.144;14.118;2022-10-14T14:22:48;20.20;99.90
8332;DHT22;4203;48.144;14.118;2022-10-14T14:25:21;20.00;99.90
8332;DHT22;4203;48.144;14.118;2022-10-14T14:27:51;19.90;99.90
8332;DHT22;4203;48.144;14.118;2022-10-14T14:30:21;19.90;99.90
8332;DHT22;4203;48.144;14.118;2022-10-14T14:32:48;19.70;99.90
8332;DHT22;4203;48.144;14.118;2022-10-14T14:35:17;19.60;99.90
8332;DHT22;4203;48.144;14.118;2022-10-14T14:37:45;19.30;99.90
8332;DHT22;4203;48.144;14.118;2022-10-14T14:40:19;19.20;99.90
8332;DHT22;4203;48.144;14.118;2022-10-14T14:42:50;19.20;99.90
8332;DHT22;4203;48.144;14.118;2022-10-14T14:45:20;19.00;99.90
8332;DHT22;4203;48.144;14.118;2022-10-14T14:47:52;18.80;99.90
8332;DHT22;4203;48.144;14.118;2022-10-14T14:50:25;18.80;99.90
8332;DHT22;4203;48.144;14.118;2022-10-14T14:52:54;18.70;99.90
8332;DHT22;4203;48.144;14.118;2022-10-14T14:55:37;18.60;99.90
8332;DHT22;4203;48.144;14.118;2022-10-14T14:58:12;18.60;99.90
8332;DHT22;4203;48.144;14.118;2022-10-14T15:00:45;18.50;99.90
8332;DHT22;4203;48.144;14.118;2022-10-14T15:03:12;18.30;99.90
8332;DHT22;4203;48.144;14.118;2022-10-14T15:05:39;18.20;99.90
8332;DHT22;4203;48.144;14.118;2022-10-14T15:08:18;18.00;99.90
8332;DHT22;4203;48.144;14.118;2022-10-14T15:10:50;18.00;99.90
8332;DHT22;4203;48.144;14.118;2022-10-14T15:13:27;17.90;99.90
8332;DHT22;4203;48.144;14.118;2022-10-14T15:15:55;17.80;99.90
8332;DHT22;4203;48.144;14.118;2022-10-14T15:18:24;17.60;99.90
8332;DHT22;4203;48.144;14.118;2022-10-14T15:21:04;17.60;99.90
8332;DHT22;4203;48.144;14.118;2022-10-14T15:23:40;17.50;99.90
8332;DHT22;4203;48.144;14.118;2022-10-14T15:26:23;17.40;99.90
8332;DHT22;4203;48.144;14.118;2022-10-14T15:29:17;17.30;99.90
8332;DHT22;4203;48.144;14.118;2022-10-14T15:31:45;17.20;99.90
8332;DHT22;4203;48.144;14.118;2022-10-14T15:34:20;17.10;99.90
8332;DHT22;4203;48.144;14.118;2022-10-14T15:36:49;16.90;99.90
8332;DHT22;4203;48.144;14.118;2022-10-14T15:39:17;16.80;99.90
8332;DHT22;4203;48.144;14.118;2022-10-14T15:41:45;16.70;99.90
8332;DHT22;4203;48.144;14.118;2022-10-14T15:44:13;16.50;99.90
8332;DHT22;4203;48.144;14.118;2022-10-14T15:46:42;16.40;99.90
8332;DHT22;4203;48.144;14.118;2022-10-14T15:49:30;16.30;99.90
8332;DHT22;4203;48.144;14.118;2022-10-14T15:51:58;16.20;99.90
8332;DHT22;4203;48.144;14.118;2022-10-14T15:54:25;16.10;99.90
8332;DHT22;4203;48.144;14.118;2022-10-14T15:56:55;15.90;99.90
8332;DHT22;4203;48.144;14.118;2022-10-14T15:59:22;15.80;99.90
8332;DHT22;4203;48.144;14.118;2022-10-14T16:01:50;15.70;99.90
8332;DHT22;4203;48.144;14.118;2022-10-14T16:04:19;15.60;99.90
8332;DHT22;4203;48.144;14.118;2022-10-14T16:06:49;15.50;99.90
8332;DHT22;4203;48.144;14.118;2022-10-14T16:09:19;15.40;99.90
8332;DHT22;4203;48.144;14.118;2022-10-14T16:11:46;15.30;99.90
8332;DHT22;4203;48.144;14.118;2022-10-14T16:14:23;15.10;99.90
8332;DHT22;4203;48.144;14.118;2022-10-14T16:16:50;15.00;99.90
8332;DHT22;4203;48.144;14.118;2022-10-14T16:19:17;14.80;99.90
8332;DHT22;4203;48.144;14.118;2022-10-14T16:21:45;14.70;99.90
8332;DHT22;4203;48.144;14.118;2022-10-14T16:24:16;14.50;99.90
8332;DHT22;4203;48.144;14.118;2022-10-14T16:26:43;14.50;99.90
8332;DHT22;4203;48.144;14.118;2022-10-14T16:29:10;14.40;99.90
8332;DHT22;4203;48.144;14.118;2022-10-14T16:31:39;14.30;99.90
8332;DHT22;4203;48.144;14.118;2022-10-14T16:34:06;14.10;99.90
8332;DHT22;4203;48.144;14.118;2022-10-14T16:36:33;13.90;99.90
8332;DHT22;4203;48.144;14.118;2022-10-14T16:39:02;13.80;99.90